Detalii statie COMAGRA BEREGSAU [00001994]

Toti senzorii

Date Temperatura solului [C]Precipitatii [mm]Voltaj baterie [mV]Leaf Wetness [Min]HC Air temperature [C]HC Relative humidity [%]Punctul de roua [C]
medieminmaxsumaultimatimpmedieminmaxmediemediemin
2019-06-15 18:00:00 30.5 30.3 30.7 0 7186 34.24 31.65 36.85 55.34 23.7 22.3
2019-06-15 19:00:00 30.5 30.3 30.7 0 7176 30.41 28.93 31.94 67.77 23.5 22.6
2019-06-15 20:00:00 30.1 29.9 30.4 0 6914 29.11 27 30.44 77.29 24.5 23.9
2019-06-15 21:00:00 29.5 29.3 30 0 6806 25.41 24.53 26.65 99.5 25.2 24.5
2019-06-15 22:00:00 28.8 28.5 29.2 0 6796 23.39 22.16 24.46 100 23.3 22.1
2019-06-15 23:00:00 28.1 27.9 28.7 0 6786 21.29 20.63 22.05 100 21.2 20.6
2019-06-16 00:00:00 27.4 27.2 27.7 0 6796 20.29 19.88 20.65 100 20.2 19.8
2019-06-16 01:00:00 26.8 26.5 27.2 0 6776 20.01 19.66 20.5 100 19.9 19.6
2019-06-16 02:00:00 26.2 25.9 26.6 0 6776 19.13 18.65 19.5 100 19.1 18.6
2019-06-16 03:00:00 25.7 25.5 26 0 6786 18.36 18.15 18.55 100 18.3 18.1
2019-06-16 04:00:00 25.1 24.8 25.5 0 6776 17.88 17.6 18.12 100 17.8 17.6
2019-06-16 05:00:00 24.8 24.6 25 0 6756 17.32 17.03 17.58 100 17.2 17
2019-06-16 06:00:00 24.3 24.1 24.5 0 6786 17.63 17.12 18.45 100 17.5 17.1
2019-06-16 07:00:00 24 23.8 24.2 0 6834 20.02 18.68 21.67 100 19.9 18.6
2019-06-16 08:00:00 23.9 23.8 24 0 6854 23.43 22.01 24.73 100 23.4 22
2019-06-16 09:00:00 23.7 23.6 23.9 0 6922 26.27 25.14 27.35 86.65 23.6 21.9
2019-06-16 10:00:00 23.7 23.7 23.8 0 7000 29.56 28.08 30.89 64.04 21.8 20.7
2019-06-16 11:00:00 23.8 23.6 24 0 7186 30.19 29.53 32.13 60.7 21.5 20.6
2019-06-16 12:00:00 23.9 23.8 24 0 7186 32.76 30.83 34.52 54.51 22.1 21.3
2019-06-16 13:00:00 24.6 24.1 25.3 0 7186 33.54 32.32 35.1 51.58 21.9 21
2019-06-16 14:00:00 26.1 25.3 26.9 0 7176 34.15 32.93 35.18 51.87 22.6 21.4
2019-06-16 15:00:00 27.7 27 28.5 0 7186 60 34.09 33.02 34.78 54.11 23.3 22.4
2019-06-16 16:00:00 29.1 28.5 29.6 0 7186 34.61 33.63 35.66 49.89 22.3 21.4
2019-06-16 17:00:00 29.9 29.5 30.3 0 7186 34.55 33.02 36.16 50.91 22.6 21.7
2019-06-16 18:00:00 30.3 30.2 30.4 0 7186 33 30.42 34.45 55.93 22.8 21.6
2019-06-16 19:00:00 30.3 30.2 30.6 0 7176 31.16 30.38 31.49 56.89 21.4 19.3
2019-06-16 20:00:00 30.1 29.8 30.4 0 6854 29.19 27.41 31.49 63.58 21.1 19.5
2019-06-16 21:00:00 29.4 29.2 29.8 0 6816 24.9 22.56 27.49 78.3 20.6 19.5
2019-06-16 22:00:00 28.7 28.4 29.1 0 6796 22.39 22.1 22.62 91.24 20.7 19.9
2019-06-16 23:00:00 27.9 27.6 28.4 0 6786 22.17 21.78 22.65 99.78 22 21.7
2019-06-17 00:00:00 27.3 27 27.6 0 6796 22.21 21.27 23.59 98.41 21.8 21.2
2019-06-17 01:00:00 26.6 26.3 27.1 0 6776 20.96 20.75 21.25 100 20.9 20.7
2019-06-17 02:00:00 26.1 25.8 26.4 0 6786 20.18 19.49 20.63 100 20.1 19.4
2019-06-17 03:00:00 25.6 25.4 25.9 0 6776 19.58 19.18 19.84 100 19.5 19.1
2019-06-17 04:00:00 25.2 25 25.5 0 6776 19.55 19.46 19.73 100 19.5 19.4
2019-06-17 05:00:00 24.7 24.6 24.9 0 6776 19.18 18.85 19.44 100 19.1 18.8
2019-06-17 06:00:00 24.4 24.3 24.6 0 6816 18.96 18.8 19.25 100 18.9 18.8
2019-06-17 07:00:00 24.2 24.1 24.4 0 6904 19.83 19.32 20.2 100 19.8 19.3
2019-06-17 08:00:00 24.1 24 24.2 0 7060 20.98 20.39 21.66 100 20.9 20.3
2019-06-17 09:00:00 24 23.9 24.1 0 7138 23.2 21.86 24.06 100 23.1 21.8
2019-06-17 10:00:00 24.2 24.1 24.5 0 7186 22.25 22.01 22.56 100 22.2 22
2019-06-17 11:00:00 24.2 24.1 24.5 0 7196 22.46 22.25 22.73 100 22.4 22.2
2019-06-17 12:00:00 24.4 24.3 24.5 0 7196 23.99 22.85 25.01 100 23.9 22.8
2019-06-17 13:00:00 24.9 24.6 25.3 0 7186 26.62 25.17 27.45 91.99 25 24.1
2019-06-17 14:00:00 26 25.5 26.6 0 7186 26.81 26.35 27.52 92.39 25.3 24.5
2019-06-17 15:00:00 27.1 26.7 27.6 0 7186 28 27.28 29.12 76.69 23.3 22.7
2019-06-17 16:00:00 28 27.6 28.3 0 7186 28.13 27.5 28.91 76.84 23.5 22.9
2019-06-17 17:00:00 28.6 28.4 28.7 0 7196 27.93 27.28 28.35 79.46 23.8 23.4